Terminal Aerodrome Forecast
Issued by NWS

Home | Current Version | Previous Version | Text Only | Print | Product List | Glossary On
Versions: 1 2 3 4 5 6 7 8 9 10 11 12 13 14 15 16 17
000
FTUS43 KDVN 180333 AAA
TAFCID
TAF AMD
KCID 180333Z 1804/1824 01006KT 1SM -RA BR OVC006
      TEMPO 1804/1807 3/4SM -DZ BR OVC003
     FM180700 36008KT 2SM -RA BR OVC007
     FM180900 35015KT 3SM -RA BR OVC006
     FM181300 33020G30KT 3/4SM -RASN BR OVC012
     FM181700 31017G26KT P6SM SKC=

USA.gov is the U.S. government's official web portal to all federal, state and local government web resources and services.